XNO5960 EHAM-EDDM
Flight info
| Callsign | XNO5960 |
|---|---|
| Flight time | 1h 5m |
| Altitude | 33000 |
| Route | EDUPO Z739 MISGO DCT DOJOH DCT DODEN DCT TABUM DCT BOMBI T104 HAREM/N0432F270 T104 ROKIL ROKIL1B |
| Aircraft | A321/M-SDE3FGHIRWY/LB1 |
Departure
| Time | 2026-05-05 18:27 |
|---|---|
| Airport | Amsterdam Airport Schiphol (EHAM) |
Arrival
| Time | 2026-05-05 19:33 |
|---|---|
| Airport | Munich Airport (EDDM) |
| Time | Latitude | Longitude | Altitude | Speed | Heading |
|---|---|---|---|---|---|
| 2026-05-05 18:01 | 52.31224 | 4.74746 | -1 ft | 0 kts | 92° |
| 2026-05-05 18:16 | 52.31225 | 4.74736 | -1 ft | 4 kts | 92° |
| 2026-05-05 18:16 | 52.31226 | 4.74692 | -1 ft | 4 kts | 92° |
| 2026-05-05 18:16 | 52.31227 | 4.74648 | -1 ft | 4 kts | 92° |
| 2026-05-05 18:16 | 52.31227 | 4.74610 | -1 ft | 4 kts | 77° |
| 2026-05-05 18:17 | 52.31216 | 4.74577 | -1 ft | 4 kts | 27° |
| 2026-05-05 18:17 | 52.31192 | 4.74569 | -1 ft | 4 kts | 354° |
| 2026-05-05 18:17 | 52.31165 | 4.74574 | -1 ft | 4 kts | 356° |
| 2026-05-05 18:17 | 52.31156 | 4.74575 | -1 ft | 0 kts | 3° |
| 2026-05-05 18:20 | 52.31157 | 4.74575 | -1 ft | 1 kts | 3° |
| 2026-05-05 18:20 | 52.31167 | 4.74576 | -1 ft | 2 kts | 3° |
| 2026-05-05 18:20 | 52.31206 | 4.74580 | -1 ft | 8 kts | 3° |
| 2026-05-05 18:21 | 52.31268 | 4.74585 | -1 ft | 9 kts | 3° |
| 2026-05-05 18:21 | 52.31336 | 4.74591 | -1 ft | 10 kts | 3° |
| 2026-05-05 18:21 | 52.31399 | 4.74634 | -1 ft | 10 kts | 35° |
| 2026-05-05 18:21 | 52.31461 | 4.74658 | -1 ft | 9 kts | 333° |
| 2026-05-05 18:22 | 52.31481 | 4.74560 | -1 ft | 10 kts | 271° |
| 2026-05-05 18:22 | 52.31478 | 4.74445 | -1 ft | 10 kts | 266° |
| 2026-05-05 18:22 | 52.31475 | 4.74343 | -1 ft | 9 kts | 266° |
| 2026-05-05 18:22 | 52.31463 | 4.74234 | -1 ft | 10 kts | 250° |
| 2026-05-05 18:23 | 52.31414 | 4.74154 | -1 ft | 10 kts | 204° |
| 2026-05-05 18:23 | 52.31339 | 4.74135 | -1 ft | 11 kts | 185° |
| 2026-05-05 18:23 | 52.31258 | 4.74125 | -1 ft | 12 kts | 182° |
| 2026-05-05 18:23 | 52.31170 | 4.74119 | -1 ft | 13 kts | 183° |
| 2026-05-05 18:24 | 52.31067 | 4.74110 | -1 ft | 16 kts | 183° |
| 2026-05-05 18:24 | 52.30957 | 4.74101 | -1 ft | 16 kts | 183° |
| 2026-05-05 18:24 | 52.30844 | 4.74091 | -1 ft | 17 kts | 183° |
| 2026-05-05 18:24 | 52.30728 | 4.74081 | -1 ft | 17 kts | 182° |
| 2026-05-05 18:25 | 52.30609 | 4.74072 | -1 ft | 17 kts | 182° |
| 2026-05-05 18:25 | 52.30532 | 4.74065 | -1 ft | 16 kts | 183° |
| 2026-05-05 18:25 | 52.30414 | 4.74053 | -1 ft | 12 kts | 185° |
| 2026-05-05 18:25 | 52.30334 | 4.74022 | -1 ft | 12 kts | 202° |
| 2026-05-05 18:26 | 52.30295 | 4.73992 | -1 ft | 5 kts | 206° |
| 2026-05-05 18:26 | 52.30236 | 4.73933 | -1 ft | 16 kts | 215° |
| 2026-05-05 18:26 | 52.30188 | 4.73807 | -2 ft | 15 kts | 276° |
| 2026-05-05 18:26 | 52.30296 | 4.73743 | -4 ft | 22 kts | 2° |
| 2026-05-05 18:27 | 52.30632 | 4.73775 | -3 ft | 82 kts | 3° |
| 2026-05-05 18:27 | 52.31403 | 4.73846 | 9 ft | 140 kts | 4° |
| 2026-05-05 18:27 | 52.32380 | 4.73942 | 712 ft | 137 kts | 9° |
| 2026-05-05 18:27 | 52.33291 | 4.74321 | 1480 ft | 135 kts | 19° |
| 2026-05-05 18:28 | 52.35224 | 4.75418 | 2318 ft | 166 kts | 21° |
| 2026-05-05 18:28 | 52.36389 | 4.76078 | 2555 ft | 188 kts | 21° |
| 2026-05-05 18:28 | 52.37679 | 4.76894 | 2727 ft | 211 kts | 32° |
| 2026-05-05 18:29 | 52.38830 | 4.78571 | 2992 ft | 233 kts | 46° |
| 2026-05-05 18:29 | 52.39974 | 4.80521 | 3571 ft | 242 kts | 45° |
| 2026-05-05 18:29 | 52.41134 | 4.82552 | 4248 ft | 248 kts | 51° |
| 2026-05-05 18:29 | 52.41997 | 4.85030 | 4930 ft | 255 kts | 67° |
| 2026-05-05 18:30 | 52.42375 | 4.87907 | 5540 ft | 264 kts | 85° |
| 2026-05-05 18:30 | 52.42387 | 4.90958 | 6190 ft | 271 kts | 89° |
| 2026-05-05 18:30 | 52.42387 | 4.94070 | 6801 ft | 276 kts | 91° |
| 2026-05-05 18:30 | 52.42029 | 4.97181 | 7411 ft | 281 kts | 110° |
| 2026-05-05 18:31 | 52.41071 | 4.99987 | 8054 ft | 285 kts | 129° |
| 2026-05-05 18:31 | 52.39601 | 5.02174 | 8716 ft | 288 kts | 146° |
| 2026-05-05 18:31 | 52.37951 | 5.04057 | 9409 ft | 290 kts | 145° |
| 2026-05-05 18:31 | 52.36294 | 5.05957 | 10065 ft | 293 kts | 145° |
| 2026-05-05 18:32 | 52.34572 | 5.07943 | 10269 ft | 313 kts | 144° |
| 2026-05-05 18:32 | 52.32868 | 5.10334 | 10398 ft | 334 kts | 134° |
| 2026-05-05 18:32 | 52.31268 | 5.13238 | 10520 ft | 353 kts | 131° |
| 2026-05-05 18:32 | 52.29591 | 5.16306 | 10716 ft | 369 kts | 132° |
| 2026-05-05 18:33 | 52.27859 | 5.19448 | 11214 ft | 374 kts | 132° |
| 2026-05-05 18:33 | 52.26104 | 5.22617 | 11793 ft | 378 kts | 132° |
| 2026-05-05 18:33 | 52.24358 | 5.25845 | 12383 ft | 381 kts | 128° |
| 2026-05-05 18:33 | 52.22805 | 5.29368 | 12964 ft | 384 kts | 125° |
| 2026-05-05 18:34 | 52.21262 | 5.32944 | 13566 ft | 387 kts | 125° |
| 2026-05-05 18:34 | 52.19704 | 5.36543 | 14129 ft | 390 kts | 125° |
| 2026-05-05 18:34 | 52.18141 | 5.40143 | 14678 ft | 392 kts | 125° |
| 2026-05-05 18:34 | 52.16558 | 5.43783 | 15241 ft | 395 kts | 125° |
| 2026-05-05 18:35 | 52.14965 | 5.47436 | 15801 ft | 397 kts | 125° |
| 2026-05-05 18:35 | 52.13358 | 5.51115 | 16363 ft | 400 kts | 125° |
| 2026-05-05 18:35 | 52.11743 | 5.54808 | 16918 ft | 402 kts | 125° |
| 2026-05-05 18:35 | 52.10112 | 5.58529 | 17471 ft | 405 kts | 125° |
| 2026-05-05 18:36 | 52.08470 | 5.62264 | 18015 ft | 407 kts | 125° |
| 2026-05-05 18:36 | 52.06821 | 5.66018 | 18491 ft | 409 kts | 126° |
| 2026-05-05 18:36 | 52.05036 | 5.69642 | 18930 ft | 411 kts | 131° |
| 2026-05-05 18:36 | 52.03154 | 5.73148 | 19381 ft | 413 kts | 132° |
| 2026-05-05 18:37 | 52.01260 | 5.76676 | 19827 ft | 415 kts | 132° |
| 2026-05-05 18:37 | 51.99357 | 5.80221 | 20253 ft | 418 kts | 132° |
| 2026-05-05 18:37 | 51.97443 | 5.83787 | 20667 ft | 420 kts | 132° |
| 2026-05-05 18:37 | 51.95521 | 5.87372 | 21074 ft | 423 kts | 132° |
| 2026-05-05 18:38 | 51.93585 | 5.90989 | 21472 ft | 425 kts | 132° |
| 2026-05-05 18:38 | 51.91645 | 5.94614 | 21878 ft | 428 kts | 132° |
| 2026-05-05 18:38 | 51.89689 | 5.98261 | 22290 ft | 429 kts | 133° |
| 2026-05-05 18:38 | 51.87724 | 6.01914 | 22692 ft | 431 kts | 133° |
| 2026-05-05 18:39 | 51.85748 | 6.05581 | 23086 ft | 433 kts | 133° |
| 2026-05-05 18:39 | 51.83763 | 6.09256 | 23470 ft | 435 kts | 133° |
| 2026-05-05 18:39 | 51.81759 | 6.12946 | 23803 ft | 437 kts | 133° |
| 2026-05-05 18:39 | 51.79747 | 6.16632 | 24139 ft | 438 kts | 133° |
| 2026-05-05 18:40 | 51.77725 | 6.20327 | 24475 ft | 440 kts | 133° |
| 2026-05-05 18:40 | 51.75696 | 6.24030 | 24799 ft | 441 kts | 133° |
| 2026-05-05 18:40 | 51.73662 | 6.27742 | 25120 ft | 443 kts | 133° |
| 2026-05-05 18:40 | 51.71615 | 6.31472 | 25438 ft | 444 kts | 133° |
| 2026-05-05 18:41 | 51.69564 | 6.35205 | 25759 ft | 446 kts | 133° |
| 2026-05-05 18:41 | 51.67502 | 6.38947 | 26089 ft | 447 kts | 133° |
| 2026-05-05 18:41 | 51.65430 | 6.42690 | 26395 ft | 449 kts | 134° |
| 2026-05-05 18:41 | 51.63351 | 6.46445 | 26720 ft | 450 kts | 133° |
| 2026-05-05 18:42 | 51.61292 | 6.50171 | 27037 ft | 451 kts | 133° |
| 2026-05-05 18:42 | 51.59215 | 6.53936 | 27480 ft | 449 kts | 133° |
| 2026-05-05 18:42 | 51.57141 | 6.57689 | 27938 ft | 447 kts | 133° |
| 2026-05-05 18:42 | 51.55062 | 6.61443 | 28385 ft | 446 kts | 133° |
| 2026-05-05 18:43 | 51.53016 | 6.65127 | 28823 ft | 444 kts | 133° |
| 2026-05-05 18:43 | 51.50969 | 6.68810 | 29255 ft | 442 kts | 133° |
| 2026-05-05 18:43 | 51.48918 | 6.72499 | 29686 ft | 441 kts | 133° |
| 2026-05-05 18:43 | 51.46834 | 6.76237 | 30109 ft | 439 kts | 134° |
| 2026-05-05 18:44 | 51.44834 | 6.79816 | 30477 ft | 437 kts | 134° |
| 2026-05-05 18:44 | 51.42816 | 6.83416 | 30854 ft | 435 kts | 134° |
| 2026-05-05 18:44 | 51.40797 | 6.87012 | 31245 ft | 433 kts | 134° |
| 2026-05-05 18:44 | 51.38740 | 6.90515 | 31625 ft | 430 kts | 136° |
| 2026-05-05 18:45 | 51.36598 | 6.93926 | 32020 ft | 427 kts | 138° |
| 2026-05-05 18:45 | 51.34481 | 6.97154 | 32396 ft | 425 kts | 139° |
| 2026-05-05 18:45 | 51.32328 | 7.00386 | 32744 ft | 424 kts | 139° |
| 2026-05-05 18:45 | 51.30184 | 7.03612 | 32835 ft | 423 kts | 139° |
| 2026-05-05 18:46 | 51.25935 | 7.10100 | 32840 ft | 422 kts | 138° |
| 2026-05-05 18:46 | 51.21902 | 7.16347 | 32841 ft | 422 kts | 138° |
| 2026-05-05 18:47 | 51.17693 | 7.22862 | 32836 ft | 422 kts | 138° |
| 2026-05-05 18:47 | 51.13461 | 7.29328 | 32837 ft | 421 kts | 139° |
| 2026-05-05 18:48 | 51.09054 | 7.35456 | 32837 ft | 420 kts | 142° |
| 2026-05-05 18:48 | 51.04537 | 7.41367 | 32839 ft | 421 kts | 142° |
| 2026-05-05 18:49 | 51.00041 | 7.47315 | 32836 ft | 421 kts | 140° |
| 2026-05-05 18:49 | 50.95793 | 7.53724 | 32838 ft | 422 kts | 136° |
| 2026-05-05 18:50 | 50.91699 | 7.60400 | 32837 ft | 422 kts | 136° |
| 2026-05-05 18:50 | 50.87577 | 7.67027 | 32832 ft | 422 kts | 136° |
| 2026-05-05 18:51 | 50.83400 | 7.73542 | 32828 ft | 422 kts | 137° |
| 2026-05-05 18:51 | 50.79203 | 7.80036 | 32827 ft | 422 kts | 137° |
| 2026-05-05 18:52 | 50.75016 | 7.86530 | 32823 ft | 422 kts | 137° |
| 2026-05-05 18:52 | 50.70830 | 7.93018 | 32820 ft | 422 kts | 137° |
| 2026-05-05 18:53 | 50.66643 | 7.99493 | 32820 ft | 422 kts | 137° |
| 2026-05-05 18:53 | 50.62446 | 8.05948 | 32820 ft | 421 kts | 137° |
| 2026-05-05 18:54 | 50.58957 | 8.11292 | 32821 ft | 421 kts | 137° |
| 2026-05-05 18:54 | 50.54762 | 8.17719 | 32822 ft | 421 kts | 137° |
| 2026-05-05 18:55 | 50.50560 | 8.24152 | 32832 ft | 421 kts | 137° |
| 2026-05-05 18:55 | 50.46359 | 8.30559 | 32836 ft | 421 kts | 137° |
| 2026-05-05 18:56 | 50.42158 | 8.36953 | 32838 ft | 421 kts | 137° |
| 2026-05-05 18:56 | 50.37977 | 8.43295 | 32843 ft | 421 kts | 137° |
| 2026-05-05 18:57 | 50.33855 | 8.49519 | 32846 ft | 421 kts | 137° |
| 2026-05-05 18:57 | 50.29823 | 8.55602 | 32834 ft | 421 kts | 137° |
| 2026-05-05 18:58 | 50.25598 | 8.61952 | 32835 ft | 421 kts | 137° |
| 2026-05-05 18:58 | 50.21373 | 8.68291 | 32828 ft | 421 kts | 137° |
| 2026-05-05 18:59 | 50.17122 | 8.74673 | 32829 ft | 421 kts | 137° |
| 2026-05-05 18:59 | 50.12889 | 8.81002 | 32826 ft | 421 kts | 137° |
| 2026-05-05 19:00 | 50.08650 | 8.87314 | 32822 ft | 422 kts | 137° |
| 2026-05-05 19:00 | 50.04401 | 8.93611 | 32826 ft | 422 kts | 137° |
| 2026-05-05 19:01 | 50.00148 | 8.99921 | 32830 ft | 423 kts | 137° |
| 2026-05-05 19:01 | 49.95889 | 9.06217 | 32833 ft | 423 kts | 137° |
| 2026-05-05 19:02 | 49.91619 | 9.12501 | 32840 ft | 423 kts | 137° |
| 2026-05-05 19:02 | 49.87347 | 9.18786 | 32836 ft | 423 kts | 137° |
| 2026-05-05 19:03 | 49.83067 | 9.25065 | 32831 ft | 424 kts | 137° |
| 2026-05-05 19:03 | 49.78779 | 9.31333 | 32832 ft | 424 kts | 137° |
| 2026-05-05 19:04 | 49.74486 | 9.37602 | 32831 ft | 425 kts | 137° |
| 2026-05-05 19:04 | 49.70187 | 9.43872 | 32833 ft | 425 kts | 137° |
| 2026-05-05 19:05 | 49.65878 | 9.50137 | 32834 ft | 426 kts | 137° |
| 2026-05-05 19:05 | 49.61552 | 9.56396 | 32832 ft | 427 kts | 138° |
| 2026-05-05 19:06 | 49.57218 | 9.62647 | 32829 ft | 427 kts | 138° |
| 2026-05-05 19:06 | 49.52872 | 9.68905 | 32826 ft | 428 kts | 138° |
| 2026-05-05 19:07 | 49.48513 | 9.75167 | 32821 ft | 429 kts | 138° |
| 2026-05-05 19:07 | 49.44141 | 9.81431 | 32818 ft | 430 kts | 138° |
| 2026-05-05 19:08 | 49.39759 | 9.87697 | 32729 ft | 432 kts | 139° |
| 2026-05-05 19:08 | 49.37560 | 9.90846 | 32453 ft | 433 kts | 139° |
| 2026-05-05 19:08 | 49.35359 | 9.93997 | 32194 ft | 433 kts | 139° |
| 2026-05-05 19:09 | 49.33152 | 9.97145 | 31929 ft | 434 kts | 139° |
| 2026-05-05 19:09 | 49.30931 | 10.00304 | 31193 ft | 438 kts | 139° |
| 2026-05-05 19:09 | 49.28689 | 10.03479 | 30403 ft | 440 kts | 139° |
| 2026-05-05 19:09 | 49.26423 | 10.06677 | 29428 ft | 446 kts | 139° |
| 2026-05-05 19:10 | 49.24135 | 10.09902 | 28527 ft | 448 kts | 139° |
| 2026-05-05 19:10 | 49.21841 | 10.13135 | 27570 ft | 450 kts | 139° |
| 2026-05-05 19:10 | 49.19525 | 10.16402 | 26553 ft | 455 kts | 139° |
| 2026-05-05 19:10 | 49.17196 | 10.19688 | 25617 ft | 457 kts | 139° |
| 2026-05-05 19:11 | 49.14869 | 10.22977 | 25094 ft | 452 kts | 139° |
| 2026-05-05 19:11 | 49.12611 | 10.26284 | 24898 ft | 449 kts | 137° |
| 2026-05-05 19:11 | 49.10435 | 10.29696 | 24853 ft | 448 kts | 135° |
| 2026-05-05 19:11 | 49.08305 | 10.33180 | 24871 ft | 449 kts | 135° |
| 2026-05-05 19:12 | 49.06192 | 10.36689 | 24871 ft | 449 kts | 134° |
| 2026-05-05 19:12 | 49.04075 | 10.40193 | 24875 ft | 449 kts | 135° |
| 2026-05-05 19:12 | 49.01948 | 10.43675 | 24877 ft | 449 kts | 135° |
| 2026-05-05 19:12 | 48.99807 | 10.47136 | 24825 ft | 447 kts | 135° |
| 2026-05-05 19:13 | 48.97673 | 10.50548 | 24143 ft | 444 kts | 136° |
| 2026-05-05 19:13 | 48.95529 | 10.53947 | 23151 ft | 448 kts | 136° |
| 2026-05-05 19:13 | 48.93355 | 10.57379 | 22018 ft | 452 kts | 136° |
| 2026-05-05 19:13 | 48.91177 | 10.60827 | 21185 ft | 450 kts | 136° |
| 2026-05-05 19:14 | 48.89015 | 10.64251 | 20425 ft | 447 kts | 136° |
| 2026-05-05 19:14 | 48.86902 | 10.67600 | 19700 ft | 443 kts | 136° |
| 2026-05-05 19:14 | 48.84748 | 10.71013 | 19077 ft | 438 kts | 136° |
| 2026-05-05 19:14 | 48.82699 | 10.74257 | 18720 ft | 426 kts | 136° |
| 2026-05-05 19:15 | 48.80664 | 10.77477 | 18322 ft | 420 kts | 136° |
| 2026-05-05 19:15 | 48.78651 | 10.80654 | 17903 ft | 416 kts | 136° |
| 2026-05-05 19:15 | 48.76645 | 10.83805 | 17508 ft | 414 kts | 136° |
| 2026-05-05 19:15 | 48.74645 | 10.86934 | 17124 ft | 413 kts | 136° |
| 2026-05-05 19:16 | 48.72653 | 10.90054 | 16841 ft | 411 kts | 135° |
| 2026-05-05 19:16 | 48.70975 | 10.93563 | 16841 ft | 414 kts | 123° |
| 2026-05-05 19:16 | 48.69499 | 10.97301 | 16841 ft | 414 kts | 123° |
| 2026-05-05 19:16 | 48.68022 | 11.01051 | 16841 ft | 414 kts | 123° |
| 2026-05-05 19:17 | 48.66551 | 11.04793 | 16837 ft | 414 kts | 123° |
| 2026-05-05 19:17 | 48.65080 | 11.08543 | 16839 ft | 414 kts | 123° |
| 2026-05-05 19:17 | 48.63609 | 11.12282 | 16828 ft | 414 kts | 123° |
| 2026-05-05 19:17 | 48.62134 | 11.16019 | 16586 ft | 413 kts | 123° |
| 2026-05-05 19:18 | 48.60662 | 11.19743 | 16327 ft | 412 kts | 123° |
| 2026-05-05 19:18 | 48.59195 | 11.23447 | 16072 ft | 410 kts | 123° |
| 2026-05-05 19:18 | 48.57732 | 11.27140 | 15822 ft | 409 kts | 123° |
| 2026-05-05 19:18 | 48.56270 | 11.30819 | 15565 ft | 408 kts | 123° |
| 2026-05-05 19:19 | 48.55774 | 11.32064 | 15480 ft | 408 kts | 123° |
| 2026-05-05 19:19 | 48.54429 | 11.35439 | 15249 ft | 406 kts | 123° |
| 2026-05-05 19:19 | 48.52982 | 11.39071 | 14942 ft | 399 kts | 124° |
| 2026-05-05 19:19 | 48.51571 | 11.42611 | 14540 ft | 392 kts | 124° |
| 2026-05-05 19:20 | 48.50168 | 11.46123 | 13987 ft | 390 kts | 124° |
| 2026-05-05 19:20 | 48.48772 | 11.49614 | 13425 ft | 387 kts | 124° |
| 2026-05-05 19:20 | 48.47387 | 11.53077 | 12838 ft | 385 kts | 124° |
| 2026-05-05 19:20 | 48.46032 | 11.56530 | 12399 ft | 379 kts | 121° |
| 2026-05-05 19:21 | 48.45010 | 11.60112 | 12268 ft | 367 kts | 111° |
| 2026-05-05 19:21 | 48.44411 | 11.63780 | 12141 ft | 355 kts | 101° |
| 2026-05-05 19:21 | 48.44212 | 11.67418 | 12006 ft | 344 kts | 92° |
| 2026-05-05 19:21 | 48.44377 | 11.70951 | 11878 ft | 333 kts | 84° |
| 2026-05-05 19:22 | 48.44648 | 11.74352 | 11733 ft | 322 kts | 85° |
| 2026-05-05 19:22 | 48.44903 | 11.77643 | 11623 ft | 311 kts | 85° |
| 2026-05-05 19:22 | 48.45144 | 11.80829 | 11492 ft | 301 kts | 85° |
| 2026-05-05 19:22 | 48.45380 | 11.83971 | 10999 ft | 305 kts | 85° |
| 2026-05-05 19:23 | 48.45619 | 11.87155 | 10836 ft | 308 kts | 85° |
| 2026-05-05 19:23 | 48.45859 | 11.90373 | 10833 ft | 311 kts | 85° |
| 2026-05-05 19:23 | 48.46100 | 11.93608 | 10829 ft | 310 kts | 85° |
| 2026-05-05 19:23 | 48.46340 | 11.96829 | 10494 ft | 309 kts | 85° |
| 2026-05-05 19:24 | 48.46582 | 12.00037 | 10152 ft | 307 kts | 85° |
| 2026-05-05 19:24 | 48.46821 | 12.03210 | 9641 ft | 304 kts | 85° |
| 2026-05-05 19:24 | 48.47058 | 12.06378 | 9229 ft | 304 kts | 85° |
| 2026-05-05 19:24 | 48.47294 | 12.09528 | 8875 ft | 301 kts | 85° |
| 2026-05-05 19:25 | 48.47525 | 12.12655 | 8531 ft | 300 kts | 85° |
| 2026-05-05 19:25 | 48.47753 | 12.15773 | 8180 ft | 298 kts | 85° |
| 2026-05-05 19:25 | 48.47958 | 12.18871 | 7827 ft | 296 kts | 90° |
| 2026-05-05 19:25 | 48.47619 | 12.21846 | 7332 ft | 290 kts | 116° |
| 2026-05-05 19:26 | 48.46476 | 12.24252 | 6794 ft | 281 kts | 144° |
| 2026-05-05 19:26 | 48.44791 | 12.25565 | 6270 ft | 268 kts | 172° |
| 2026-05-05 19:26 | 48.42998 | 12.25522 | 5697 ft | 254 kts | 201° |
| 2026-05-05 19:26 | 48.41528 | 12.24207 | 5186 ft | 242 kts | 228° |
| 2026-05-05 19:27 | 48.40483 | 12.22296 | 4860 ft | 228 kts | 237° |
| 2026-05-05 19:27 | 48.39648 | 12.20285 | 4904 ft | 226 kts | 251° |
| 2026-05-05 19:27 | 48.39349 | 12.17990 | 4927 ft | 224 kts | 264° |
| 2026-05-05 19:27 | 48.39185 | 12.15657 | 4918 ft | 224 kts | 265° |
| 2026-05-05 19:28 | 48.39019 | 12.13325 | 4921 ft | 224 kts | 264° |
| 2026-05-05 19:28 | 48.38849 | 12.10996 | 4927 ft | 224 kts | 264° |
| 2026-05-05 19:28 | 48.38678 | 12.08680 | 4863 ft | 219 kts | 264° |
| 2026-05-05 19:28 | 48.38512 | 12.06445 | 4647 ft | 211 kts | 265° |
| 2026-05-05 19:29 | 48.38354 | 12.04315 | 4383 ft | 198 kts | 265° |
| 2026-05-05 19:29 | 48.38205 | 12.02309 | 4113 ft | 188 kts | 265° |
| 2026-05-05 19:29 | 48.38064 | 12.00416 | 3878 ft | 175 kts | 265° |
| 2026-05-05 19:29 | 48.37931 | 11.98631 | 3646 ft | 169 kts | 265° |
| 2026-05-05 19:30 | 48.37801 | 11.96891 | 3424 ft | 166 kts | 266° |
| 2026-05-05 19:30 | 48.37672 | 11.95168 | 3211 ft | 165 kts | 265° |
| 2026-05-05 19:30 | 48.37546 | 11.93496 | 3004 ft | 154 kts | 265° |
| 2026-05-05 19:30 | 48.37428 | 11.91923 | 2793 ft | 149 kts | 266° |
| 2026-05-05 19:31 | 48.37316 | 11.90390 | 2599 ft | 147 kts | 265° |
| 2026-05-05 19:31 | 48.37200 | 11.88870 | 2375 ft | 146 kts | 265° |
| 2026-05-05 19:31 | 48.37083 | 11.87351 | 2173 ft | 147 kts | 265° |
| 2026-05-05 19:31 | 48.36963 | 11.85821 | 1999 ft | 147 kts | 264° |
| 2026-05-05 19:32 | 48.36847 | 11.84279 | 1772 ft | 149 kts | 264° |
| 2026-05-05 19:32 | 48.36729 | 11.82731 | 1610 ft | 149 kts | 264° |
| 2026-05-05 19:32 | 48.36615 | 11.81203 | 1474 ft | 137 kts | 264° |
| 2026-05-05 19:32 | 48.36524 | 11.79978 | 1464 ft | 94 kts | 264° |
| 2026-05-05 19:33 | 48.36473 | 11.79289 | 1469 ft | 36 kts | 262° |
| 2026-05-05 19:33 | 48.36417 | 11.78940 | 1461 ft | 33 kts | 239° |
| 2026-05-05 19:33 | 48.36301 | 11.78708 | 1463 ft | 22 kts | 233° |
| 2026-05-05 19:33 | 48.36244 | 11.78593 | 1461 ft | 12 kts | 233° |
| 2026-05-05 19:34 | 48.36202 | 11.78509 | 1465 ft | 4 kts | 233° |
| 2026-05-05 19:34 | 48.36181 | 11.78466 | 1462 ft | 6 kts | 232° |
| 2026-05-05 19:34 | 48.36154 | 11.78413 | 1464 ft | 7 kts | 234° |
| 2026-05-05 19:35 | 48.36118 | 11.78242 | 1462 ft | 10 kts | 261° |
| 2026-05-05 19:35 | 48.36107 | 11.78134 | 1467 ft | 11 kts | 261° |
| 2026-05-05 19:35 | 48.36101 | 11.78052 | 1461 ft | 12 kts | 264° |
| 2026-05-05 19:35 | 48.36092 | 11.77921 | 1459 ft | 13 kts | 264° |
| 2026-05-05 19:36 | 48.36085 | 11.77827 | 1461 ft | 9 kts | 264° |
| 2026-05-05 19:36 | 48.36078 | 11.77725 | 1467 ft | 10 kts | 262° |
| 2026-05-05 19:36 | 48.36033 | 11.77667 | 1462 ft | 0 kts | 181° |
| 2026-05-05 19:36 | 48.36031 | 11.77667 | 1462 ft | 0 kts | 181° |
| 2026-05-05 19:37 | 48.36028 | 11.77667 | 1462 ft | 1 kts | 180° |
| 2026-05-05 19:37 | 48.36012 | 11.77668 | 1467 ft | 4 kts | 176° |
| 2026-05-05 19:37 | 48.35966 | 11.77673 | 1463 ft | 8 kts | 176° |
| 2026-05-05 19:38 | 48.35906 | 11.77684 | 1463 ft | 10 kts | 173° |
| 2026-05-05 19:38 | 48.35835 | 11.77697 | 1466 ft | 11 kts | 173° |
| 2026-05-05 19:38 | 48.35757 | 11.77688 | 1466 ft | 12 kts | 197° |
| 2026-05-05 19:38 | 48.35673 | 11.77684 | 1466 ft | 12 kts | 174° |
| 2026-05-05 19:39 | 48.35610 | 11.77693 | 1466 ft | 9 kts | 174° |
| 2026-05-05 19:39 | 48.35537 | 11.77706 | 1463 ft | 12 kts | 173° |
| 2026-05-05 19:39 | 48.35483 | 11.77715 | 1460 ft | 7 kts | 173° |
| 2026-05-05 19:39 | 48.35445 | 11.77723 | 1457 ft | 3 kts | 172° |
| 2026-05-05 19:40 | 48.35435 | 11.77717 | 1462 ft | 1 kts | 213° |
| 2026-05-05 19:40 | 48.35432 | 11.77711 | 1462 ft | 1 kts | 229° |
| 2026-05-05 19:40 | 48.35427 | 11.77694 | 1459 ft | 2 kts | 249° |
| 2026-05-05 19:40 | 48.35424 | 11.77682 | 1461 ft | 0 kts | 253° |
| 2026-05-05 19:41 | 48.35422 | 11.77676 | 1463 ft | 0 kts | 241° |
| 2026-05-05 19:41 | 48.35421 | 11.77670 | 1466 ft | 1 kts | 253° |
| 2026-05-05 19:41 | 48.35421 | 11.77662 | 1466 ft | 0 kts | 265° |
| 2026-05-05 19:41 | 48.35421 | 11.77661 | 1466 ft | 0 kts | 265° |